createdAt,value
2022-11-26T00:00:51.789Z,1.48
2022-11-26T00:03:57.158Z,1.49
2022-11-26T00:06:59.956Z,1.36
2022-11-26T00:10:05.294Z,1.36
2022-11-26T00:13:19.050Z,1.29
2022-11-26T00:16:21.962Z,1.37
2022-11-26T00:19:24.854Z,1.32
2022-11-26T00:22:32.520Z,1.21
2022-11-26T00:25:44.765Z,1.25
2022-11-26T00:28:57.844Z,1.21
2022-11-26T00:32:00.648Z,1.23
2022-11-26T00:35:03.578Z,1.08
2022-11-26T00:38:06.691Z,1.08
2022-11-26T00:41:16.295Z,1.03
2022-11-26T00:44:24.663Z,0.95
2022-11-26T00:47:27.540Z,0.96
2022-11-26T00:50:38.694Z,0.80
2022-11-26T00:53:42.164Z,0.75
2022-11-26T00:56:45.894Z,0.68
2022-11-26T00:59:48.824Z,0.74
2022-11-26T01:02:52.145Z,0.74
2022-11-26T01:05:57.663Z,0.67
2022-11-26T01:09:01.521Z,0.60
2022-11-26T01:12:04.878Z,0.60
2022-11-26T01:15:08.070Z,0.59
2022-11-26T01:18:14.267Z,0.51
2022-11-26T01:21:17.856Z,0.44
2022-11-26T01:24:20.596Z,0.51
2022-11-26T01:27:23.413Z,0.56
2022-11-26T01:30:30.230Z,0.61
2022-11-26T01:33:32.930Z,0.67
2022-11-26T01:36:38.307Z,0.69
2022-11-26T01:39:41.429Z,0.69
2022-11-26T01:42:49.873Z,0.58
2022-11-26T01:45:53.272Z,0.41
2022-11-26T01:49:16.503Z,0.30
2022-11-26T01:52:25.908Z,0.26
2022-11-26T01:55:46.919Z,0.18
2022-11-26T01:58:56.738Z,0.01
2022-11-26T02:02:01.711Z,-0.03
2022-11-26T02:05:27.930Z,-0.12
2022-11-26T02:08:33.594Z,-0.10
2022-11-26T02:11:37.470Z,-0.06
2022-11-26T02:14:44.264Z,-0.11
2022-11-26T02:17:55.779Z,-0.21
2022-11-26T02:21:14.487Z,-0.12
2022-11-26T02:25:00.582Z,-0.17
2022-11-26T02:28:15.551Z,-0.31
2022-11-26T02:31:42.811Z,-0.36
2022-11-26T02:35:01.583Z,-0.55
2022-11-26T02:38:12.260Z,-0.61
2022-11-26T02:41:15.130Z,-0.62
2022-11-26T02:44:22.544Z,-0.74
2022-11-26T02:47:27.979Z,-0.73
2022-11-26T02:50:38.565Z,-0.61
2022-11-26T02:53:42.434Z,-0.75
2022-11-26T02:56:45.771Z,-0.73
2022-11-26T02:59:48.698Z,-0.46
2022-11-26T03:03:08.471Z,-0.49
2022-11-26T03:06:13.437Z,-0.35
2022-11-26T03:09:17.971Z,-0.31
2022-11-26T03:12:21.543Z,-0.40
2022-11-26T03:15:26.137Z,-0.38
2022-11-26T03:18:29.239Z,-0.24
2022-11-26T03:21:33.368Z,-0.07
2022-11-26T03:24:36.718Z,-0.03
2022-11-26T03:27:39.774Z,-0.03
2022-11-26T03:30:44.649Z,-0.04
2022-11-26T03:33:47.569Z,-0.06
2022-11-26T03:36:50.702Z,-0.03
2022-11-26T03:39:53.555Z,-0.11
2022-11-26T03:42:56.443Z,-0.04
2022-11-26T03:45:59.376Z,0.04
2022-11-26T03:49:02.157Z,0.07
2022-11-26T03:52:05.240Z,0.07
2022-11-26T03:55:08.314Z,0.18
2022-11-26T03:58:11.285Z,0.21
2022-11-26T04:01:14.850Z,0.23
2022-11-26T04:04:18.050Z,0.07
2022-11-26T04:07:21.312Z,0.02
2022-11-26T04:10:24.771Z,0.19
2022-11-26T04:13:27.612Z,0.10
2022-11-26T04:16:30.473Z,0.13
2022-11-26T04:19:33.400Z,-0.22
2022-11-26T04:22:36.203Z,-0.24
2022-11-26T04:25:39.018Z,-0.53
2022-11-26T04:28:42.057Z,-0.42
2022-11-26T04:31:45.012Z,-0.49
2022-11-26T04:34:47.976Z,-0.43
2022-11-26T04:37:50.904Z,-0.48
2022-11-26T04:40:54.034Z,-0.41
2022-11-26T04:43:56.876Z,-0.30
2022-11-26T04:46:59.682Z,-0.29
2022-11-26T04:50:02.803Z,-0.31
2022-11-26T04:53:05.757Z,-0.38
2022-11-26T04:56:09.394Z,-0.33
2022-11-26T04:59:12.237Z,-0.37
2022-11-26T05:02:15.125Z,-0.29
2022-11-26T05:05:17.999Z,-0.38
2022-11-26T05:08:20.759Z,-0.37
2022-11-26T05:11:23.693Z,-0.30
2022-11-26T05:14:26.589Z,-0.33
2022-11-26T05:17:29.431Z,-0.38
2022-11-26T05:20:33.279Z,-0.45
2022-11-26T05:23:36.160Z,-0.53
2022-11-26T05:26:38.936Z,-0.50
2022-11-26T05:29:41.687Z,-0.62
2022-11-26T05:32:44.967Z,-0.60
2022-11-26T05:35:47.766Z,-0.46
2022-11-26T05:38:50.753Z,-0.22
2022-11-26T05:41:53.714Z,-0.36
2022-11-26T05:44:56.546Z,-0.61
2022-11-26T05:47:59.506Z,-0.58
2022-11-26T05:51:03.610Z,-0.43
2022-11-26T05:54:07.603Z,-0.43
2022-11-26T05:57:11.025Z,-0.49
2022-11-26T06:00:14.626Z,-0.43
2022-11-26T06:03:20.331Z,-0.39
2022-11-26T06:06:23.406Z,-0.40
2022-11-26T06:09:26.282Z,-0.29
2022-11-26T06:12:29.344Z,-0.28
2022-11-26T06:15:32.418Z,-0.56
2022-11-26T06:18:37.113Z,-0.54
2022-11-26T06:21:40.216Z,-0.55
2022-11-26T06:24:43.054Z,-0.41
2022-11-26T06:27:46.047Z,-0.34
2022-11-26T06:30:48.894Z,-0.14
2022-11-26T06:33:56.381Z,-0.01
2022-11-26T06:36:59.128Z,0.16
2022-11-26T06:40:02.593Z,0.29
2022-11-26T06:43:05.323Z,0.48
2022-11-26T06:46:10.484Z,0.55
2022-11-26T06:49:13.402Z,0.55
2022-11-26T06:52:16.302Z,0.56
2022-11-26T06:55:19.375Z,0.68
2022-11-26T06:58:25.294Z,0.34
2022-11-26T07:01:28.604Z,0.69
2022-11-26T07:04:31.855Z,0.75
2022-11-26T07:07:38.117Z,0.70
2022-11-26T07:10:44.852Z,0.66
2022-11-26T07:13:51.094Z,0.97
2022-11-26T07:16:53.942Z,1.16
2022-11-26T07:19:56.787Z,1.34
2022-11-26T07:22:59.723Z,1.27
2022-11-26T07:26:04.193Z,1.30
2022-11-26T07:29:07.269Z,1.32
2022-11-26T07:32:10.960Z,1.37
2022-11-26T07:35:14.008Z,1.14
2022-11-26T07:38:16.877Z,1.07
2022-11-26T07:41:20.262Z,1.10
2022-11-26T07:44:23.400Z,1.06
2022-11-26T07:47:26.301Z,1.05
2022-11-26T07:50:29.326Z,1.15
2022-11-26T07:53:33.745Z,1.21
2022-11-26T07:56:37.203Z,1.24
2022-11-26T07:59:40.038Z,1.21
2022-11-26T08:02:42.910Z,1.34
2022-11-26T08:05:46.144Z,1.32
2022-11-26T08:08:50.170Z,0.90
2022-11-26T08:11:53.160Z,0.96
2022-11-26T08:14:55.952Z,0.93
2022-11-26T08:17:59.387Z,1.01
2022-11-26T08:21:02.640Z,0.87
2022-11-26T08:24:06.319Z,0.91
2022-11-26T08:27:09.082Z,0.85
2022-11-26T08:30:12.325Z,0.91
2022-11-26T08:33:15.796Z,1.08
2022-11-26T08:36:18.603Z,1.34
2022-11-26T08:39:21.958Z,1.35
2022-11-26T08:42:24.919Z,1.37
2022-11-26T08:45:27.778Z,1.54
2022-11-26T08:48:31.990Z,1.66
2022-11-26T08:51:35.109Z,1.94
2022-11-26T08:54:43.396Z,2.25
2022-11-26T08:57:48.006Z,2.10
2022-11-26T09:00:51.514Z,2.25
2022-11-26T09:03:56.824Z,2.55
2022-11-26T09:06:59.586Z,2.87
2022-11-26T09:10:02.411Z,3.41
2022-11-26T09:13:05.215Z,4.38
2022-11-26T09:16:08.084Z,5.75
2022-11-26T09:19:16.233Z,6.95
2022-11-26T09:22:19.097Z,8.27
2022-11-26T09:25:22.213Z,8.85
2022-11-26T09:28:25.019Z,9.63
2022-11-26T09:31:28.368Z,9.99
2022-11-26T09:34:31.807Z,10.22
2022-11-26T09:37:35.104Z,9.27
2022-11-26T09:40:50.223Z,8.68
2022-11-26T09:44:03.176Z,9.51
2022-11-26T09:47:13.017Z,9.35
2022-11-26T09:50:24.502Z,8.94
2022-11-26T09:53:36.914Z,7.81
2022-11-26T09:56:39.917Z,8.30
2022-11-26T09:59:45.857Z,8.04
2022-11-26T10:02:48.889Z,7.63
2022-11-26T10:05:51.626Z,7.85
2022-11-26T10:09:16.028Z,7.87
2022-11-26T10:12:56.596Z,8.92
2022-11-26T10:16:19.054Z,10.22
2022-11-26T10:19:45.448Z,9.91
2022-11-26T10:22:55.631Z,10.29
2022-11-26T10:26:08.273Z,10.01
2022-11-26T10:29:33.772Z,9.96
2022-11-26T10:32:42.683Z,9.50
2022-11-26T10:35:47.212Z,9.26
2022-11-26T10:38:50.117Z,9.28
2022-11-26T10:41:53.120Z,9.24
2022-11-26T10:44:55.993Z,9.20
2022-11-26T10:48:29.048Z,9.12
2022-11-26T10:51:33.636Z,10.17
2022-11-26T10:54:38.896Z,10.42
2022-11-26T10:57:47.825Z,11.37
2022-11-26T11:00:50.544Z,12.29
2022-11-26T11:04:13.897Z,13.08
2022-11-26T11:07:42.351Z,13.96
2022-11-26T11:10:55.222Z,13.04
2022-11-26T11:13:58.115Z,13.73
2022-11-26T11:17:01.117Z,14.66
2022-11-26T11:20:15.964Z,14.88
2022-11-26T11:24:00.048Z,14.28
2022-11-26T11:27:03.316Z,13.47
2022-11-26T11:30:07.186Z,12.82
2022-11-26T11:33:20.484Z,12.92
2022-11-26T11:36:28.800Z,12.77
2022-11-26T11:39:34.385Z,11.50
2022-11-26T11:42:40.621Z,12.24
2022-11-26T11:45:53.134Z,11.64
2022-11-26T11:49:32.319Z,12.55
2022-11-26T11:52:53.198Z,13.09
2022-11-26T11:56:14.850Z,12.17
2022-11-26T11:59:47.989Z,12.31
2022-11-26T12:03:10.616Z,10.95
2022-11-26T12:06:19.289Z,10.57
2022-11-26T12:09:28.182Z,10.47
2022-11-26T12:12:56.921Z,10.51
2022-11-26T12:16:03.335Z,10.33
2022-11-26T12:19:29.640Z,10.64
2022-11-26T12:22:44.834Z,10.80
2022-11-26T12:25:51.854Z,10.44
2022-11-26T12:29:18.640Z,10.47
2022-11-26T12:33:01.952Z,10.48
2022-11-26T12:36:13.937Z,10.60
2022-11-26T12:39:27.057Z,10.61
2022-11-26T12:42:58.594Z,10.64
2022-11-26T12:46:17.067Z,10.78
2022-11-26T12:49:52.307Z,10.69
2022-11-26T12:53:05.173Z,10.59
2022-11-26T12:56:48.633Z,10.42
2022-11-26T13:00:35.971Z,10.10
2022-11-26T13:03:40.954Z,9.40
2022-11-26T13:07:14.368Z,9.30
2022-11-26T13:10:40.091Z,9.49
2022-11-26T13:14:04.265Z,8.87
2022-11-26T13:17:14.979Z,8.82
2022-11-26T13:20:31.594Z,8.64
2022-11-26T13:24:17.447Z,8.86
2022-11-26T13:27:24.415Z,8.77
2022-11-26T13:30:47.468Z,8.71
2022-11-26T13:33:58.757Z,8.68
2022-11-26T13:37:13.872Z,8.66
2022-11-26T13:40:32.237Z,8.72
2022-11-26T13:43:49.774Z,8.76
2022-11-26T13:47:10.302Z,8.68
2022-11-26T13:50:21.411Z,8.89
2022-11-26T13:53:32.536Z,9.04
2022-11-26T13:56:37.704Z,9.15
2022-11-26T13:59:53.281Z,8.78
2022-11-26T14:03:01.219Z,8.35
2022-11-26T14:06:08.476Z,8.44
2022-11-26T14:09:43.861Z,8.29
2022-11-26T14:13:02.101Z,8.02
2022-11-26T14:16:10.662Z,7.74
2022-11-26T14:19:13.595Z,7.56
2022-11-26T14:22:19.760Z,7.53
2022-11-26T14:25:39.022Z,7.50
2022-11-26T14:28:42.083Z,7.46
2022-11-26T14:31:55.077Z,7.51
2022-11-26T14:34:58.459Z,7.61
2022-11-26T14:38:31.732Z,7.63
2022-11-26T14:41:59.075Z,7.72
2022-11-26T14:45:17.773Z,7.70
2022-11-26T14:48:28.110Z,7.56
2022-11-26T14:51:32.808Z,7.56
2022-11-26T14:54:39.964Z,7.49
2022-11-26T14:57:50.748Z,7.43
2022-11-26T15:01:18.984Z,7.30
2022-11-26T15:04:28.144Z,7.31
2022-11-26T15:07:32.215Z,7.21
2022-11-26T15:10:38.812Z,7.13
2022-11-26T15:13:46.923Z,7.15
2022-11-26T15:17:01.985Z,7.03
2022-11-26T15:20:08.904Z,7.08
2022-11-26T15:23:18.596Z,7.06
2022-11-26T15:26:23.324Z,7.10
2022-11-26T15:29:32.190Z,7.11
2022-11-26T15:32:35.098Z,7.06
2022-11-26T15:35:40.019Z,7.06
2022-11-26T15:39:08.607Z,7.06
2022-11-26T15:42:30.694Z,6.99
2022-11-26T15:45:39.125Z,6.98
2022-11-26T15:48:53.251Z,6.98
2022-11-26T15:51:56.320Z,6.88
2022-11-26T15:55:12.830Z,6.80
2022-11-26T15:58:25.251Z,6.69
2022-11-26T16:01:32.934Z,6.68
2022-11-26T16:04:46.933Z,6.72
2022-11-26T16:08:26.052Z,6.66
2022-11-26T16:11:31.417Z,6.52
2022-11-26T16:14:39.976Z,6.52
2022-11-26T16:17:43.321Z,6.49
2022-11-26T16:20:46.535Z,6.46
2022-11-26T16:23:53.960Z,6.37
2022-11-26T16:27:05.404Z,6.33
2022-11-26T16:30:15.915Z,6.26
2022-11-26T16:33:18.903Z,6.33
2022-11-26T16:36:28.563Z,6.41
2022-11-26T16:42:55.646Z,6.20
2022-11-26T16:45:58.995Z,6.17
2022-11-26T16:49:02.255Z,6.15
2022-11-26T16:52:10.096Z,6.19
2022-11-26T16:55:14.997Z,6.18
2022-11-26T16:58:38.381Z,6.18
2022-11-26T17:01:41.507Z,6.21
2022-11-26T17:04:44.737Z,6.16
2022-11-26T17:07:57.713Z,6.17
2022-11-26T17:11:00.789Z,6.17
2022-11-26T17:14:03.804Z,6.19
2022-11-26T17:17:09.145Z,6.18
2022-11-26T17:20:21.375Z,6.14
2022-11-26T17:23:24.136Z,6.14
2022-11-26T17:26:26.969Z,6.17
2022-11-26T17:29:31.042Z,6.17
2022-11-26T17:32:33.988Z,6.22
2022-11-26T17:35:37.335Z,6.23
2022-11-26T17:38:40.390Z,6.22
2022-11-26T17:41:43.383Z,6.23
2022-11-26T17:44:47.147Z,6.23
2022-11-26T17:47:50.343Z,6.21
2022-11-26T17:50:53.126Z,6.23
2022-11-26T17:53:55.937Z,6.26
2022-11-26T17:56:59.053Z,6.32
2022-11-26T18:00:02.066Z,6.31
2022-11-26T18:03:05.201Z,6.36
2022-11-26T18:06:14.724Z,6.40
2022-11-26T18:09:17.643Z,6.39
2022-11-26T18:12:25.453Z,6.42
2022-11-26T18:15:28.622Z,6.22
2022-11-26T18:18:31.548Z,6.15
2022-11-26T18:21:34.928Z,6.26
2022-11-26T18:24:37.909Z,6.33
2022-11-26T18:27:40.963Z,6.24
2022-11-26T18:30:45.112Z,6.26
2022-11-26T18:33:48.802Z,6.26
2022-11-26T18:36:53.874Z,6.23
2022-11-26T18:39:57.401Z,6.25
2022-11-26T18:43:00.408Z,6.31
2022-11-26T18:46:05.436Z,6.30
2022-11-26T18:49:08.617Z,6.31
2022-11-26T18:52:11.625Z,6.28
2022-11-26T18:55:15.165Z,6.26
2022-11-26T18:58:18.726Z,6.31
2022-11-26T19:01:26.028Z,6.23
2022-11-26T19:04:28.976Z,6.31
2022-11-26T19:07:33.339Z,6.32
2022-11-26T19:10:38.460Z,6.36
2022-11-26T19:13:41.575Z,6.41
2022-11-26T19:16:44.705Z,6.31
2022-11-26T19:19:48.025Z,6.20
2022-11-26T19:22:51.364Z,6.22
2022-11-26T19:25:54.999Z,6.40
2022-11-26T19:29:05.269Z,6.25
2022-11-26T19:32:09.695Z,6.27
2022-11-26T19:35:14.175Z,6.28
2022-11-26T19:38:17.281Z,6.23
2022-11-26T19:41:25.365Z,6.05
2022-11-26T19:44:28.883Z,6.02
2022-11-26T19:47:32.017Z,6.07
2022-11-26T19:50:36.288Z,6.05
2022-11-26T19:53:39.820Z,6.06
2022-11-26T19:56:43.293Z,6.21
2022-11-26T19:59:46.363Z,6.35
2022-11-26T20:02:49.649Z,6.43
2022-11-26T20:05:53.034Z,6.24
2022-11-26T20:08:58.477Z,6.20
2022-11-26T20:12:01.477Z,6.18
2022-11-26T20:15:04.827Z,6.13
2022-11-26T20:18:12.060Z,6.11
2022-11-26T20:21:21.784Z,6.09
2022-11-26T20:24:24.914Z,6.07
2022-11-26T20:27:28.208Z,6.10
2022-11-26T20:30:32.154Z,6.07
2022-11-26T20:33:35.870Z,6.06
2022-11-26T20:36:38.800Z,6.03
2022-11-26T20:39:42.421Z,6.09
2022-11-26T20:42:46.537Z,6.14
2022-11-26T20:45:49.941Z,6.20
2022-11-26T20:48:53.345Z,6.10
2022-11-26T20:51:56.299Z,6.08
2022-11-26T20:54:59.358Z,6.02
2022-11-26T20:58:02.295Z,6.00
2022-11-26T21:01:06.006Z,6.03
2022-11-26T21:04:09.016Z,6.10
2022-11-26T21:07:12.047Z,6.05
2022-11-26T21:10:16.014Z,6.06
2022-11-26T21:13:19.283Z,6.13
2022-11-26T21:16:23.478Z,6.03
2022-11-26T21:19:26.738Z,5.92
2022-11-26T21:22:29.658Z,5.92
2022-11-26T21:25:32.670Z,6.02
2022-11-26T21:28:36.279Z,5.95
2022-11-26T21:31:39.153Z,6.04
2022-11-26T21:34:42.035Z,5.98
2022-11-26T21:37:44.833Z,6.00
2022-11-26T21:40:48.162Z,5.90
2022-11-26T21:43:51.951Z,6.00
2022-11-26T21:46:55.006Z,6.07
2022-11-26T21:49:57.822Z,5.94
2022-11-26T21:53:01.805Z,5.90
2022-11-26T21:56:10.844Z,5.86
2022-11-26T21:59:13.955Z,5.89
2022-11-26T22:02:16.842Z,5.86
2022-11-26T22:05:19.663Z,5.86
2022-11-26T22:08:22.614Z,6.13
2022-11-26T22:11:32.673Z,5.89
2022-11-26T22:14:35.590Z,6.06
2022-11-26T22:17:38.375Z,6.00
2022-11-26T22:20:41.804Z,5.95
2022-11-26T22:23:45.883Z,5.84
2022-11-26T22:26:48.744Z,6.01
2022-11-26T22:29:51.691Z,6.03
2022-11-26T22:32:54.725Z,6.06
2022-11-26T22:36:01.390Z,5.92
2022-11-26T22:39:06.528Z,5.83
2022-11-26T22:42:09.328Z,5.82
2022-11-26T22:45:12.109Z,5.95
2022-11-26T22:48:14.952Z,5.99
2022-11-26T22:51:18.063Z,5.91
2022-11-26T22:54:24.204Z,5.87
2022-11-26T22:57:27.035Z,5.83
2022-11-26T23:00:51.271Z,5.90
2022-11-26T23:03:55.583Z,5.87
2022-11-26T23:06:58.448Z,5.96
2022-11-26T23:10:01.649Z,5.86
2022-11-26T23:13:06.146Z,5.86
2022-11-26T23:16:09.909Z,5.88
2022-11-26T23:19:15.580Z,5.87
2022-11-26T23:22:18.502Z,5.93
2022-11-26T23:25:21.416Z,5.83
2022-11-26T23:28:24.662Z,5.88
2022-11-26T23:31:38.757Z,5.85
2022-11-26T23:34:41.605Z,5.99
2022-11-26T23:37:44.439Z,6.05
2022-11-26T23:40:58.530Z,5.89
2022-11-26T23:44:01.285Z,5.85
2022-11-26T23:47:04.310Z,5.82
2022-11-26T23:50:08.163Z,5.90
2022-11-26T23:53:12.177Z,6.04
2022-11-26T23:56:18.209Z,6.07
2022-11-26T23:59:21.019Z,6.05
